Time;durP1;ratioP1;P1;durP2;ratioP2;P2;SDS_P1;SDS_P2;PMS_P1;PMS_P2;Temp;Humidity;BMP_temperature;BMP_pressure;BME280_temperature;BME280_humidity;BME280_pressure;Samples;Min_cycle;Max_cycle;Signal;HPM_P1;HPM_P2
2021/12/20 00:01:53;;;;;;;13.70;8.25;;;;;;;1.43;77.34;92703.03;5089649;28;20035;-48
2021/12/20 00:04:19;;;;;;;11.88;6.80;;;;;;;1.34;77.90;92710.81;5090590;28;20047;-46
2021/12/20 00:06:44;;;;;;;11.45;8.23;;;;;;;1.32;78.20;92716.00;5091446;28;20107;-49
2021/12/20 00:09:10;;;;;;;13.98;7.88;;;;;;;1.32;77.82;92719.44;5091078;28;20066;-48
2021/12/20 00:11:35;;;;;;;11.38;7.95;;;;;;;1.19;78.99;92724.75;5094939;28;20020;-50
2021/12/20 00:14:01;;;;;;;10.25;6.75;;;;;;;1.18;78.74;92722.53;5095410;28;20031;-50
2021/12/20 00:16:26;;;;;;;13.45;8.45;;;;;;;1.00;78.92;92694.00;5095414;28;20032;-51
2021/12/20 00:18:52;;;;;;;10.75;7.50;;;;;;;1.22;79.25;92717.56;5095276;28;20104;-47
2021/12/20 00:21:17;;;;;;;13.32;8.00;;;;;;;1.26;79.15;92720.72;5094177;28;20561;-48
2021/12/20 00:23:43;;;;;;;12.82;8.23;;;;;;;1.24;79.29;92718.53;5094598;28;20024;-48
2021/12/20 00:26:09;;;;;;;13.88;8.65;;;;;;;1.06;79.25;92702.84;5094458;28;20404;-47
2021/12/20 00:28:38;;;;;;;12.05;7.30;;;;;;;1.19;79.01;92721.31;5094359;28;20055;-49
2021/12/20 00:31:03;;;;;;;12.07;7.70;;;;;;;1.29;78.52;92719.72;5094435;28;20031;-48
2021/12/20 00:33:33;;;;;;;12.40;7.85;;;;;;;1.29;78.80;92712.31;5092916;28;20027;-48
2021/12/20 00:36:00;;;;;;;15.77;8.75;;;;;;;1.23;78.86;92722.50;5093043;28;20042;-48
2021/12/20 00:41:09;;;;;;;12.45;8.48;;;;;;;1.16;79.27;92720.31;5092978;28;20035;-48
2021/12/20 00:43:35;;;;;;;11.63;8.15;;;;;;;1.19;79.21;92715.88;5092459;28;20032;-46
2021/12/20 00:46:00;;;;;;;15.07;9.00;;;;;;;1.13;79.60;92723.31;5092922;28;20744;-51
2021/12/20 00:48:26;;;;;;;10.75;7.60;;;;;;;1.20;79.00;92725.47;5092785;28;20581;-50
2021/12/20 00:50:52;;;;;;;13.50;7.80;;;;;;;1.23;79.23;92732.63;5092794;28;20435;-48
2021/12/20 00:53:17;;;;;;;18.90;9.07;;;;;;;1.28;78.71;92727.16;5094665;28;20077;-48
2021/12/20 00:55:43;;;;;;;11.57;7.03;;;;;;;1.23;78.67;92714.34;5077392;28;20402;-49
2021/12/20 00:58:09;;;;;;;18.30;9.70;;;;;;;1.21;79.48;92724.97;5072701;28;20493;-48
2021/12/20 01:00:47;;;;;;;11.88;8.52;;;;;;;1.06;79.77;92723.88;5072111;28;20027;-49
2021/12/20 01:03:13;;;;;;;12.77;7.93;;;;;;;1.18;80.27;92736.88;5072693;28;20025;-50
2021/12/20 01:05:39;;;;;;;13.77;9.15;;;;;;;1.22;79.71;92742.03;5073524;28;20025;-49
2021/12/20 01:08:07;;;;;;;13.10;8.90;;;;;;;1.13;79.86;92743.06;5072622;28;20028;-49
2021/12/20 01:10:36;;;;;;;23.85;13.45;;;;;;;1.16;80.10;92747.50;5073450;28;20035;-49
2021/12/20 01:13:05;;;;;;;25.55;13.00;;;;;;;1.19;80.30;92751.94;5073003;28;20020;-49
2021/12/20 01:15:34;;;;;;;18.48;11.45;;;;;;;1.19;80.12;92749.22;5073060;28;20060;-47
2021/12/20 01:18:01;;;;;;;14.48;9.70;;;;;;;1.19;80.07;92746.50;5072843;28;20028;-48
2021/12/20 01:20:27;;;;;;;16.23;10.73;;;;;;;1.25;79.90;92738.31;5071941;28;20036;-45
2021/12/20 01:22:53;;;;;;;24.17;12.88;;;;;;;1.24;79.62;92734.84;5071078;28;20115;-46
2021/12/20 01:25:19;;;;;;;16.83;10.82;;;;;;;1.20;79.45;92742.53;5071670;28;20095;-46
2021/12/20 01:27:45;;;;;;;19.10;11.15;;;;;;;1.16;80.40;92739.34;5071914;28;20103;-49
2021/12/20 01:30:13;;;;;;;16.40;11.35;;;;;;;1.05;80.95;92744.88;5071677;28;20025;-46
2021/12/20 01:32:40;;;;;;;15.18;9.88;;;;;;;1.04;81.00;92737.94;5086272;28;20024;-48
2021/12/20 01:35:07;;;;;;;20.85;11.65;;;;;;;1.06;80.80;92726.59;5092320;28;20489;-46
2021/12/20 01:37:33;;;;;;;16.38;10.57;;;;;;;1.04;80.53;92729.78;5093854;28;20103;-52
2021/12/20 01:39:59;;;;;;;15.55;10.43;;;;;;;0.85;81.00;92707.19;5093302;28;20082;-50
2021/12/20 01:42:27;;;;;;;19.85;10.32;;;;;;;1.05;80.72;92734.00;5093290;28;20024;-50
2021/12/20 01:44:56;;;;;;;16.52;10.00;;;;;;;1.05;80.70;92735.97;5093418;28;20505;-47
2021/12/20 01:47:32;;;;;;;15.82;9.75;;;;;;;1.05;81.34;92730.53;5093358;28;20027;-47
2021/12/20 01:50:15;;;;;;;15.63;9.65;;;;;;;1.02;81.66;92729.56;5093293;28;20497;-48
2021/12/20 01:52:42;;;;;;;12.05;8.65;;;;;;;1.08;81.26;92727.56;5093086;28;20107;-51
2021/12/20 01:55:14;;;;;;;18.65;10.98;;;;;;;1.03;81.37;92733.03;5093397;28;20031;-48
2021/12/20 01:57:41;;;;;;;15.45;9.85;;;;;;;1.08;81.39;92724.84;5090531;28;20546;-48
2021/12/20 02:00:09;;;;;;;12.70;9.05;;;;;;;1.05;81.32;92727.81;5072921;28;20024;-47
2021/12/20 02:02:35;;;;;;;12.50;9.88;;;;;;;1.11;81.37;92731.97;5073076;28;20028;-48
2021/12/20 02:05:12;;;;;;;13.90;9.38;;;;;;;1.15;81.43;92732.44;5073110;28;20032;-47
2021/12/20 02:07:50;;;;;;;14.77;9.95;;;;;;;1.13;81.44;92732.19;5072778;28;20021;-47
2021/12/20 02:10:17;;;;;;;14.07;9.70;;;;;;;1.21;81.57;92735.13;5072727;28;20027;-48
2021/12/20 02:12:42;;;;;;;14.90;9.75;;;;;;;1.15;81.67;92737.16;5072894;28;20105;-47
2021/12/20 02:15:08;;;;;;;16.73;10.45;;;;;;;1.16;81.04;92741.34;5072547;28;20541;-48
2021/12/20 02:17:34;;;;;;;25.33;10.43;;;;;;;1.03;81.57;92738.47;5072575;28;20020;-46
2021/12/20 02:20:01;;;;;;;14.45;9.82;;;;;;;1.12;81.54;92741.63;5072372;28;20034;-47
2021/12/20 02:22:26;;;;;;;15.68;10.63;;;;;;;1.14;81.62;92739.13;5072447;28;20498;-49
2021/12/20 02:24:52;;;;;;;13.82;9.90;;;;;;;1.18;81.24;92742.31;5072356;28;20021;-50
2021/12/20 02:27:19;;;;;;;15.45;9.57;;;;;;;1.10;81.89;92738.66;5072325;28;20087;-47
2021/12/20 02:30:00;;;;;;;12.63;9.15;;;;;;;1.05;81.85;92733.25;5072349;28;20029;-49
2021/12/20 02:37:55;;;;;;;13.57;8.75;;;;;;;1.11;81.61;92721.09;5092886;28;20463;-45
2021/12/20 02:40:22;;;;;;;17.35;10.35;;;;;;;1.17;81.68;92727.22;5092289;28;20035;-45
2021/12/20 02:42:49;;;;;;;15.55;9.80;;;;;;;1.22;81.22;92729.19;5092393;28;20130;-45
2021/12/20 02:45:16;;;;;;;13.77;8.80;;;;;;;1.19;81.60;92721.31;5092327;28;20089;-45
2021/12/20 02:47:46;;;;;;;15.23;8.88;;;;;;;1.24;81.13;92717.78;5092163;28;20651;-45
2021/12/20 02:50:12;;;;;;;14.35;9.18;;;;;;;1.10;81.09;92708.03;5092503;28;20462;-45
2021/12/20 02:52:39;;;;;;;13.15;9.73;;;;;;;1.17;81.49;92721.78;5091895;28;20055;-45
2021/12/20 02:55:06;;;;;;;13.18;9.38;;;;;;;1.19;81.10;92716.59;5090689;28;20432;-47
2021/12/20 02:57:35;;;;;;;15.57;8.38;;;;;;;1.11;81.36;92695.88;5090397;28;20311;-47
2021/12/20 03:00:01;;;;;;;14.40;9.10;;;;;;;1.19;81.24;92713.88;5090630;28;20035;-46
2021/12/20 03:02:26;;;;;;;13.68;9.45;;;;;;;1.16;81.05;92717.59;5090705;28;20405;-50
2021/12/20 03:04:52;;;;;;;15.18;9.10;;;;;;;1.16;81.83;92717.59;5090394;28;20024;-48
2021/12/20 03:07:23;;;;;;;12.60;8.75;;;;;;;1.22;81.62;92723.75;5090740;28;20035;-50
2021/12/20 03:09:54;;;;;;;16.50;9.35;;;;;;;1.20;81.37;92714.59;5090461;28;20039;-48
2021/12/20 03:12:22;;;;;;;13.15;9.35;;;;;;;1.28;81.19;92699.22;5089892;28;20106;-51
2021/12/20 03:14:50;;;;;;;14.80;9.37;;;;;;;1.29;80.48;92714.28;5090042;28;20051;-52
2021/12/20 03:17:16;;;;;;;12.32;8.23;;;;;;;1.35;80.41;92718.44;5090195;28;20023;-50
2021/12/20 03:19:41;;;;;;;15.95;9.18;;;;;;;1.34;80.52;92727.13;5090058;28;20450;-49
2021/12/20 03:22:07;;;;;;;12.50;9.45;;;;;;;1.44;80.39;92720.84;5089970;28;20028;-52
2021/12/20 03:24:33;;;;;;;14.43;8.82;;;;;;;1.40;80.50;92719.66;5090451;28;20461;-51
2021/12/20 03:26:58;;;;;;;14.05;9.93;;;;;;;1.34;80.39;92733.28;5091249;28;20107;-49
2021/12/20 03:29:24;;;;;;;13.98;8.98;;;;;;;1.38;79.93;92722.88;5091585;28;20459;-50
2021/12/20 03:31:50;;;;;;;15.45;10.63;;;;;;;1.39;80.01;92724.34;5091775;28;20024;-51
2021/12/20 03:34:16;;;;;;;14.55;9.35;;;;;;;1.37;79.91;92735.00;5091471;28;20093;-48
2021/12/20 03:36:42;;;;;;;15.05;10.18;;;;;;;1.42;80.47;92731.50;5091856;28;20028;-48
2021/12/20 03:39:08;;;;;;;16.52;9.93;;;;;;;1.44;80.26;92745.31;5090943;28;20030;-50
2021/12/20 03:41:35;;;;;;;12.82;9.40;;;;;;;1.35;79.99;92737.47;5091837;28;20030;-48
2021/12/20 03:44:01;;;;;;;16.55;10.60;;;;;;;1.31;80.20;92733.56;5091149;28;20044;-48
2021/12/20 03:46:26;;;;;;;14.95;9.98;;;;;;;1.32;81.09;92732.31;5091186;28;20089;-48
2021/12/20 03:48:52;;;;;;;13.20;9.35;;;;;;;1.39;80.22;92735.22;5091347;28;20020;-49
2021/12/20 03:51:17;;;;;;;38.95;12.07;;;;;;;1.28;80.85;92732.59;5091623;28;20059;-47
2021/12/20 03:53:44;;;;;;;13.85;9.68;;;;;;;1.19;80.06;92713.16;5091592;28;20542;-47
2021/12/20 03:56:09;;;;;;;47.30;13.70;;;;;;;1.35;80.29;92739.47;5091248;28;20020;-47
2021/12/20 03:58:36;;;;;;;15.52;10.15;;;;;;;1.28;80.47;92723.69;5091287;28;20023;-48
2021/12/20 04:01:07;;;;;;;15.98;9.45;;;;;;;1.30;80.21;92732.81;5091215;28;20107;-46
2021/12/20 04:03:35;;;;;;;14.35;9.50;;;;;;;1.29;79.89;92725.16;5091526;28;20048;-48
2021/12/20 04:06:04;;;;;;;14.65;9.18;;;;;;;1.19;81.02;92721.31;5091309;28;20020;-45
2021/12/20 04:08:30;;;;;;;14.95;9.98;;;;;;;1.25;81.45;92725.47;5091501;28;20032;-47
2021/12/20 04:10:57;;;;;;;16.60;10.07;;;;;;;1.27;80.55;92730.38;5091068;28;20024;-47
2021/12/20 04:13:23;;;;;;;14.70;9.50;;;;;;;1.32;81.03;92735.75;5091327;28;20028;-48
2021/12/20 04:15:48;;;;;;;31.30;11.93;;;;;;;1.40;80.65;92720.38;5091444;28;20040;-47
2021/12/20 04:18:14;;;;;;;13.75;9.80;;;;;;;1.40;80.59;92725.09;5091118;28;20493;-47
2021/12/20 04:20:40;;;;;;;14.18;8.80;;;;;;;1.41;79.92;92738.16;5078521;28;20028;-51
2021/12/20 04:23:05;;;;;;;21.33;12.65;;;;;;;1.32;80.31;92730.31;5071090;28;20390;-45
2021/12/20 04:25:31;;;;;;;21.38;11.00;;;;;;;1.33;81.39;92728.34;5070821;28;20047;-49
2021/12/20 04:27:56;;;;;;;20.50;10.45;;;;;;;1.30;80.63;92738.25;5071078;28;20041;-48
2021/12/20 04:30:22;;;;;;;21.23;11.95;;;;;;;1.28;81.48;92742.72;5071125;28;20028;-46
2021/12/20 04:32:47;;;;;;;20.15;12.10;;;;;;;1.31;81.51;92739.75;5086858;28;20023;-47
2021/12/20 04:35:15;;;;;;;33.45;16.52;;;;;;;1.26;81.76;92732.34;5090881;28;20427;-49
2021/12/20 04:37:44;;;;;;;68.63;27.85;;;;;;;1.29;81.38;92753.09;5090928;28;20032;-48
2021/12/20 04:40:14;;;;;;;17.33;10.10;;;;;;;1.24;81.90;92756.59;5090457;28;20028;-47
2021/12/20 04:42:40;;;;;;;18.75;12.48;;;;;;;1.25;81.94;92747.22;5090729;28;20052;-48
2021/12/20 04:45:06;;;;;;;16.00;10.95;;;;;;;1.17;81.93;92746.25;5091067;28;20023;-50
2021/12/20 04:47:32;;;;;;;16.83;10.75;;;;;;;1.11;82.64;92750.25;5090835;28;20056;-46
2021/12/20 04:49:59;;;;;;;15.85;10.13;;;;;;;1.05;82.82;92733.25;5090772;28;20055;-46
2021/12/20 04:52:25;;;;;;;11.80;9.00;;;;;;;1.03;83.57;92731.06;5090780;28;20035;-47
2021/12/20 04:54:50;;;;;;;17.38;11.23;;;;;;;1.05;83.11;92728.56;5090627;28;20111;-46
2021/12/20 04:57:17;;;;;;;24.58;14.25;;;;;;;1.04;83.12;92724.34;5074430;28;20259;-46
2021/12/20 04:59:43;;;;;;;22.27;10.30;;;;;;;1.09;83.24;92722.84;5081428;28;20051;-46
2021/12/20 05:02:08;;;;;;;13.68;10.13;;;;;;;0.98;83.28;92734.53;5094308;28;20071;-46
2021/12/20 05:04:34;;;;;;;18.40;11.57;;;;;;;1.04;83.96;92737.94;5094529;28;20474;-45
2021/12/20 05:06:59;;;;;;;18.60;11.48;;;;;;;0.95;83.29;92734.81;5094255;28;20047;-49
2021/12/20 05:09:28;;;;;;;15.18;10.60;;;;;;;0.96;83.95;92728.88;5094145;28;20451;-47
2021/12/20 05:12:01;;;;;;;;;;;;;;;1.01;84.00;92728.09;5094701;28;20034;-48
2021/12/20 05:14:27;;;;;;;94.30;15.88;;;;;;;0.90;83.81;92727.44;5094422;28;20284;-44
2021/12/20 05:16:52;;;;;;;14.43;9.70;;;;;;;0.91;84.20;92734.34;5094150;28;20027;-47
2021/12/20 05:19:18;;;;;;;13.70;9.38;;;;;;;0.89;84.38;92736.84;5094280;28;20413;-48
2021/12/20 05:21:43;;;;;;;17.15;10.55;;;;;;;0.85;84.08;92728.94;5093958;28;20080;-49
2021/12/20 05:24:09;;;;;;;16.40;9.98;;;;;;;0.84;84.69;92734.88;5093853;28;20023;-48
2021/12/20 05:26:34;;;;;;;16.40;10.70;;;;;;;0.78;84.26;92745.75;5094110;28;20073;-48
2021/12/20 05:29:05;;;;;;;12.73;9.38;;;;;;;0.74;84.42;92739.88;5093653;28;20039;-47
2021/12/20 05:31:33;;;;;;;17.50;10.05;;;;;;;0.69;84.59;92730.50;5090624;28;20031;-47
2021/12/20 05:33:59;;;;;;;13.07;8.82;;;;;;;0.79;85.21;92749.97;5073657;28;20082;-45
2021/12/20 05:36:24;;;;;;;13.13;8.45;;;;;;;0.84;85.14;92762.78;5086437;28;20432;-47
2021/12/20 05:38:50;;;;;;;17.85;11.13;;;;;;;0.85;84.95;92758.81;5093498;28;20024;-49
2021/12/20 05:41:15;;;;;;;15.93;10.52;;;;;;;0.65;84.82;92734.75;5093804;28;20052;-48
2021/12/20 05:43:41;;;;;;;22.10;13.90;;;;;;;0.83;84.67;92757.84;5093302;28;20417;-48
2021/12/20 05:46:06;;;;;;;11.27;8.82;;;;;;;0.91;84.40;92762.25;5093691;28;20059;-47
2021/12/20 05:48:32;;;;;;;12.80;8.68;;;;;;;0.93;84.74;92764.47;5093696;28;20485;-48
2021/12/20 05:50:57;;;;;;;13.63;8.65;;;;;;;0.90;84.07;92770.91;5092445;28;20029;-47
2021/12/20 05:53:23;;;;;;;14.85;8.80;;;;;;;0.86;84.14;92770.44;5093357;28;20020;-49
2021/12/20 05:55:49;;;;;;;13.55;10.13;;;;;;;0.78;84.31;92770.22;5093634;28;20103;-51
2021/12/20 05:58:14;;;;;;;18.13;10.57;;;;;;;0.91;83.88;92769.69;5086006;28;20514;-48
2021/12/20 06:00:39;;;;;;;35.70;11.82;;;;;;;0.89;83.92;92775.59;5077669;28;20024;-49
2021/12/20 06:03:05;;;;;;;12.15;8.27;;;;;;;0.89;83.33;92774.88;5082486;28;20468;-45
2021/12/20 06:05:30;;;;;;;14.95;8.68;;;;;;;0.81;83.88;92771.94;5082559;28;20489;-46
2021/12/20 06:07:57;;;;;;;12.32;8.30;;;;;;;0.90;84.43;92762.75;5081800;28;20110;-49
2021/12/20 06:10:23;;;;;;;10.35;8.23;;;;;;;0.91;84.00;92778.53;5083649;28;20020;-47
2021/12/20 06:12:48;;;;;;;14.38;10.02;;;;;;;1.01;83.31;92784.44;5080627;28;20615;-50
2021/12/20 06:15:15;;;;;;;27.52;12.50;;;;;;;1.02;83.14;92777.78;5072596;28;20118;-47
2021/12/20 06:17:40;;;;;;;13.65;9.32;;;;;;;1.08;82.76;92792.06;5089502;28;20030;-53
2021/12/20 06:20:08;;;;;;;15.10;9.57;;;;;;;1.15;83.21;92786.09;5091144;28;20024;-51
2021/12/20 06:22:34;;;;;;;16.00;9.27;;;;;;;1.07;82.75;92791.31;5091667;28;20028;-46
2021/12/20 06:25:00;;;;;;;14.55;9.55;;;;;;;1.12;83.09;92804.13;5090994;28;20528;-47
2021/12/20 06:27:25;;;;;;;27.48;14.63;;;;;;;1.03;83.28;92795.53;5091419;28;20058;-47
2021/12/20 06:29:51;;;;;;;18.13;12.50;;;;;;;1.08;83.74;92792.06;5091274;28;20446;-48
2021/12/20 06:32:16;;;;;;;19.27;13.45;;;;;;;1.18;83.65;92790.50;5087642;28;20153;-49
2021/12/20 06:34:42;;;;;;;13.90;10.00;;;;;;;1.20;82.52;92786.03;5088849;28;20107;-52
2021/12/20 06:37:08;;;;;;;39.33;13.40;;;;;;;1.14;82.71;92801.66;5088910;28;20524;-58
2021/12/20 06:39:33;;;;;;;15.05;10.07;;;;;;;1.18;82.04;92790.50;5088080;28;20103;-54
2021/12/20 06:41:59;;;;;;;15.30;9.80;;;;;;;1.24;82.40;92813.69;5088632;28;20552;-56
2021/12/20 06:44:25;;;;;;;13.45;9.02;;;;;;;1.32;82.23;92806.47;5088206;28;20044;-48
2021/12/20 06:46:51;;;;;;;13.18;9.27;;;;;;;1.45;81.21;92817.50;5088699;28;20501;-49
2021/12/20 06:49:17;;;;;;;16.77;10.35;;;;;;;1.45;81.51;92811.34;5088474;28;20024;-50
2021/12/20 06:51:43;;;;;;;11.23;8.32;;;;;;;1.36;81.77;92817.84;5088705;28;20024;-53
2021/12/20 06:54:10;;;;;;;54.00;11.25;;;;;;;1.45;81.27;92814.06;5079902;28;20151;-50
2021/12/20 06:56:36;;;;;;;12.32;7.28;;;;;;;1.35;81.63;92819.06;5088507;28;20051;-48
2021/12/20 06:59:02;;;;;;;10.20;7.03;;;;;;;1.38;81.64;92809.91;5088628;28;20056;-47
2021/12/20 07:01:28;;;;;;;12.80;8.07;;;;;;;1.45;81.12;92809.34;5077040;28;20050;-50
2021/12/20 07:03:53;;;;;;;13.65;8.23;;;;;;;1.50;81.17;92814.00;5076613;28;20031;-49
2021/12/20 07:06:19;;;;;;;12.85;8.85;;;;;;;1.57;80.84;92809.25;5088714;28;20123;-48
2021/12/20 07:08:44;;;;;;;12.02;8.10;;;;;;;1.61;80.86;92801.56;5088353;28;20110;-45
2021/12/20 07:11:10;;;;;;;12.20;9.15;;;;;;;1.58;80.39;92802.59;5088459;28;20031;-45
2021/12/20 07:13:36;;;;;;;11.18;7.82;;;;;;;1.56;80.88;92799.63;5088329;28;20028;-46
2021/12/20 07:16:05;;;;;;;11.02;8.07;;;;;;;1.66;80.27;92800.78;5088210;28;20102;-46
2021/12/20 07:18:30;;;;;;;;;;;;;;;1.78;79.61;92796.72;5087429;28;20039;-52
2021/12/20 07:20:56;;;;;;;9.32;7.30;;;;;;;1.74;79.88;92794.28;5073161;28;20323;-49
2021/12/20 07:23:22;;;;;;;14.82;9.45;;;;;;;1.74;79.70;92797.00;5077717;28;20020;-48
2021/12/20 07:25:49;;;;;;;9.65;7.65;;;;;;;1.94;78.97;92793.88;5082333;28;20032;-46
2021/12/20 07:28:15;;;;;;;13.23;8.27;;;;;;;2.03;78.56;92795.53;5088872;28;20416;-47
2021/12/20 07:30:40;;;;;;;10.68;8.50;;;;;;;2.05;78.07;92796.50;5088416;28;20036;-45
2021/12/20 07:33:07;;;;;;;13.25;8.57;;;;;;;2.08;78.00;92797.47;5089712;28;20028;-45
2021/12/20 07:35:33;;;;;;;11.80;8.20;;;;;;;1.85;77.70;92779.84;5090111;28;20027;-48
2021/12/20 07:38:01;;;;;;;8.20;6.85;;;;;;;2.02;78.64;92815.81;5090038;28;20108;-47
2021/12/20 07:40:26;;;;;;;9.77;7.90;;;;;;;2.03;78.72;92820.75;5088551;28;20028;-47
2021/12/20 07:42:52;;;;;;;12.32;7.53;;;;;;;2.29;77.65;92812.84;5090067;28;20048;-48
2021/12/20 07:45:17;;;;;;;12.32;8.25;;;;;;;2.62;77.06;92828.06;5090027;28;20024;-48
2021/12/20 07:47:43;;;;;;;13.48;9.60;;;;;;;2.81;75.87;92825.41;5088422;28;20028;-47
2021/12/20 07:50:08;;;;;;;15.88;9.82;;;;;;;3.04;75.37;92823.84;5088752;28;20031;-58
2021/12/20 07:52:34;;;;;;;10.25;7.97;;;;;;;3.38;74.66;92837.81;5089898;28;20046;-48
2021/12/20 07:55:00;;;;;;;9.82;7.60;;;;;;;3.58;73.11;92831.81;5090121;28;20036;-50
2021/12/20 07:57:26;;;;;;;12.40;8.25;;;;;;;3.81;71.99;92830.22;5090058;28;20558;-47
2021/12/20 07:59:52;;;;;;;8.85;6.20;;;;;;;3.89;71.10;92831.09;5089269;28;20028;-48
2021/12/20 08:02:17;;;;;;;8.75;6.85;;;;;;;3.73;71.32;92841.00;5088812;28;20424;-50
2021/12/20 08:04:48;;;;;;;11.27;8.02;;;;;;;3.78;71.43;92829.28;5088884;28;20512;-52
2021/12/20 08:07:14;;;;;;;14.90;8.85;;;;;;;3.75;71.17;92843.94;5088760;28;20035;-49
2021/12/20 08:22:51;;;;;;;8.75;7.28;;;;;;;4.08;70.06;92844.69;5106183;27;20637;-46
2021/12/20 08:25:18;;;;;;;7.35;6.10;;;;;;;4.10;68.60;92826.53;5098194;28;20039;-46
2021/12/20 08:27:44;;;;;;;6.47;5.18;;;;;;;3.82;70.06;92851.53;5098119;28;20393;-47
2021/12/20 08:30:10;;;;;;;7.10;5.32;;;;;;;3.72;69.68;92860.63;5096284;28;20028;-49
2021/12/20 08:32:36;;;;;;;6.55;5.47;;;;;;;4.07;69.43;92862.34;5100274;28;20020;-46
2021/12/20 08:35:03;;;;;;;7.82;5.63;;;;;;;4.66;68.38;92866.56;5095454;28;20024;-45
2021/12/20 08:37:29;;;;;;;5.88;4.53;;;;;;;5.36;64.93;92854.72;5105027;28;20458;-48
2021/12/20 08:39:54;;;;;;;6.40;5.32;;;;;;;5.92;62.81;92851.53;5105343;28;20077;-48
2021/12/20 08:42:20;;;;;;;4.75;4.22;;;;;;;6.25;61.68;92859.00;5088589;28;20527;-46
2021/12/20 08:44:46;;;;;;;6.38;5.45;;;;;;;6.24;60.51;92859.53;5091369;28;20452;-48
2021/12/20 08:47:12;;;;;;;6.78;5.38;;;;;;;6.72;59.92;92854.06;5093803;28;20109;-46
2021/12/20 08:49:38;;;;;;;11.73;5.18;;;;;;;8.02;56.24;92859.59;5090467;28;20095;-51
2021/12/20 08:52:04;;;;;;;8.65;5.85;;;;;;;9.15;51.74;92856.19;5085527;28;20069;-48
2021/12/20 08:54:29;;;;;;;5.13;4.60;;;;;;;9.32;50.65;92842.56;5097196;28;20027;-46
2021/12/20 08:57:00;;;;;;;5.82;5.25;;;;;;;8.72;51.26;92856.41;5081856;28;20057;-45
2021/12/20 08:59:26;;;;;;;4.38;3.72;;;;;;;9.10;50.39;92849.56;5089707;28;20023;-46
2021/12/20 09:01:52;;;;;;;4.18;3.78;;;;;;;8.96;50.77;92848.34;5088526;28;20024;-46
2021/12/20 09:04:18;;;;;;;4.50;4.03;;;;;;;9.91;48.65;92854.66;5099398;28;20111;-46
2021/12/20 09:06:43;;;;;;;6.15;3.72;;;;;;;9.62;48.46;92853.47;5084757;28;20642;-47
2021/12/20 09:09:12;;;;;;;4.68;3.60;;;;;;;9.10;50.01;92855.09;5083177;28;20542;-49
2021/12/20 09:11:38;;;;;;;4.95;3.97;;;;;;;8.60;51.45;92858.06;5093152;28;20504;-55
2021/12/20 09:14:04;;;;;;;4.25;3.33;;;;;;;8.08;52.60;92854.66;5095894;28;20515;-52
2021/12/20 09:16:30;;;;;;;5.25;4.07;;;;;;;7.10;54.83;92851.56;5083298;28;20523;-50
2021/12/20 09:18:56;;;;;;;4.72;3.80;;;;;;;6.35;57.06;92856.50;5087793;28;20043;-49
2021/12/20 09:33:27;;;;;;;5.15;4.45;;;;;;;5.17;61.84;92837.72;5070489;27;20622;-45
2021/12/20 09:35:53;;;;;;;4.82;4.00;;;;;;;4.74;63.32;92843.53;5071949;27;20045;-47
2021/12/20 09:38:20;;;;;;;7.85;3.97;;;;;;;4.51;64.49;92837.72;5058277;27;20029;-46
2021/12/20 09:43:49;;;;;;;4.55;3.97;;;;;;;4.18;66.07;92851.94;5094598;27;20045;-47
2021/12/20 09:46:16;;;;;;;4.45;3.67;;;;;;;4.09;65.13;92846.91;5067266;27;20021;-50
2021/12/20 09:48:44;;;;;;;3.50;2.90;;;;;;;3.95;66.42;92853.56;5043769;27;20025;-45
2021/12/20 09:51:10;;;;;;;5.07;3.97;;;;;;;3.73;67.45;92846.47;5061590;27;20057;-44
2021/12/20 09:53:35;;;;;;;5.28;4.10;;;;;;;3.92;66.87;92845.69;5057390;27;20115;-43
2021/12/20 09:56:01;;;;;;;5.05;4.45;;;;;;;4.03;66.46;92848.97;5061812;27;20025;-46
2021/12/20 09:58:28;;;;;;;4.28;3.10;;;;;;;4.13;65.88;92841.88;5061400;27;20066;-44
2021/12/20 10:00:54;;;;;;;4.97;3.90;;;;;;;4.28;65.66;92847.59;5051452;27;20029;-45
2021/12/20 10:03:24;;;;;;;3.28;2.95;;;;;;;4.10;65.60;92850.34;5059761;27;20044;-42
2021/12/20 10:05:54;;;;;;;4.78;3.67;;;;;;;4.37;65.41;92830.03;5063405;27;20059;-44
2021/12/20 10:08:26;;;;;;;3.45;3.15;;;;;;;4.83;63.06;92840.34;5033565;28;20025;-44
2021/12/20 10:10:51;;;;;;;4.05;3.53;;;;;;;5.11;62.17;92840.56;5082110;27;20041;-45
2021/12/20 10:13:26;;;;;;;3.75;3.40;;;;;;;5.20;61.64;92842.84;5099639;27;20517;-43
2021/12/20 10:15:52;;;;;;;4.28;3.33;;;;;;;5.52;61.17;92844.69;5053767;27;20041;-42
2021/12/20 10:18:18;;;;;;;2.90;2.60;;;;;;;6.36;58.37;92833.31;5074703;27;20037;-42
2021/12/20 10:20:56;;;;;;;4.60;3.60;;;;;;;5.95;57.72;92806.66;5099679;27;20034;-44
2021/12/20 10:23:27;;;;;;;4.38;3.75;;;;;;;6.20;58.34;92828.94;5050425;27;20039;-42
2021/12/20 10:25:55;;;;;;;2.90;2.60;;;;;;;6.14;57.63;92823.63;5055715;27;20039;-42
2021/12/20 10:28:24;;;;;;;4.65;3.20;;;;;;;5.86;58.90;92832.50;5049087;27;20033;-43
2021/12/20 10:30:57;;;;;;;3.88;3.25;;;;;;;5.71;59.25;92815.88;5041359;27;20173;-46
2021/12/20 10:33:23;;;;;;;3.42;2.78;;;;;;;5.63;59.48;92834.22;5035796;27;20525;-46
2021/12/20 10:35:50;;;;;;;2.50;2.30;;;;;;;6.11;58.34;92830.91;5043625;27;20520;-43
2021/12/20 10:38:29;;;;;;;6.40;3.40;;;;;;;6.10;58.56;92823.97;5035732;27;20045;-44
2021/12/20 10:41:10;;;;;;;3.95;3.17;;;;;;;5.79;58.50;92833.13;5038982;27;20038;-46
2021/12/20 10:43:49;;;;;;;4.45;3.63;;;;;;;5.45;59.34;92837.13;5038258;27;20061;-45
2021/12/20 10:46:27;;;;;;;3.33;3.03;;;;;;;5.07;61.13;92844.88;5031664;27;20069;-44
2021/12/20 10:49:04;;;;;;;4.47;3.40;;;;;;;4.95;61.21;92819.00;5045700;27;20071;-44
2021/12/20 10:51:49;;;;;;;5.60;5.00;;;;;;;4.87;61.89;92835.34;5046054;27;20052;-45
2021/12/20 10:54:18;;;;;;;3.95;2.90;;;;;;;4.77;62.19;92833.53;5047466;27;20036;-43
2021/12/20 10:56:49;;;;;;;3.38;3.08;;;;;;;4.50;62.79;92825.31;5046496;27;20028;-45
2021/12/20 10:59:15;;;;;;;4.22;3.20;;;;;;;4.50;63.32;92808.91;5033653;27;20044;-40
2021/12/20 11:04:26;;;;;;;3.08;2.80;;;;;;;4.76;63.43;92840.28;5044357;27;20041;-41
2021/12/20 11:09:26;;;;;;;3.50;3.20;;;;;;;4.31;64.99;92846.53;5033736;27;19995;-39
2021/12/20 11:11:55;;;;;;;4.15;3.55;;;;;;;4.24;65.08;92840.94;5043035;27;20029;-39
2021/12/20 11:14:26;;;;;;;4.60;3.60;;;;;;;4.38;64.90;92834.97;5038593;27;20040;-41
2021/12/20 11:16:54;;;;;;;4.35;3.58;;;;;;;4.26;65.19;92844.63;5046306;27;20070;-41
2021/12/20 11:19:24;;;;;;;3.40;3.10;;;;;;;4.12;66.37;92834.94;5025115;27;20033;-40
2021/12/20 11:21:59;;;;;;;4.43;3.92;;;;;;;4.15;65.59;92842.09;5046762;27;20032;-40
2021/12/20 11:24:40;;;;;;;3.55;3.22;;;;;;;4.07;66.68;92833.00;5040693;27;20048;-39
2021/12/20 11:27:10;;;;;;;10.52;4.30;;;;;;;4.26;66.50;92846.63;5030974;27;20030;-41
2021/12/20 11:29:37;;;;;;;8.63;3.53;;;;;;;4.11;67.16;92847.13;5064775;27;20055;-41
2021/12/20 11:32:04;;;;;;;5.05;3.85;;;;;;;3.79;68.50;92846.38;5058767;27;20053;-40
2021/12/20 11:34:30;;;;;;;4.60;4.05;;;;;;;3.62;69.37;92851.34;5037829;27;20068;-40
2021/12/20 11:36:56;;;;;;;4.07;3.65;;;;;;;3.42;70.79;92868.25;5048047;27;20100;-40
2021/12/20 11:39:22;;;;;;;3.72;3.42;;;;;;;3.28;72.08;92872.16;5034591;28;20097;-40
2021/12/20 11:41:48;;;;;;;5.38;4.57;;;;;;;3.08;73.35;92865.94;5041102;27;20026;-40
2021/12/20 11:44:20;;;;;;;4.38;3.97;;;;;;;3.12;73.92;92864.94;5048978;27;20140;-40
2021/12/20 11:47:19;;;;;;;4.43;4.03;;;;;;;2.88;74.81;92873.91;5045237;27;20034;-40
2021/12/20 11:49:55;;;;;;;4.03;3.67;;;;;;;2.95;74.99;92868.59;5030529;27;20044;-40
2021/12/20 11:52:22;;;;;;;4.50;4.10;;;;;;;3.06;74.49;92864.97;5031704;27;20038;-40
2021/12/20 11:54:51;;;;;;;5.18;4.20;;;;;;;3.07;74.29;92872.66;5030909;27;20490;-40
2021/12/20 11:57:28;;;;;;;5.47;3.45;;;;;;;2.96;74.61;92872.06;5032839;27;20037;-40
2021/12/20 11:59:56;;;;;;;6.40;4.00;;;;;;;2.97;74.49;92863.34;5037706;27;20044;-39
2021/12/20 12:02:30;;;;;;;4.07;3.38;;;;;;;3.14;73.71;92865.16;5026499;28;20089;-40
2021/12/20 12:05:00;;;;;;;8.68;6.40;;;;;;;3.13;73.92;92852.75;5026613;28;20048;-39
2021/12/20 12:07:28;;;;;;;4.53;4.13;;;;;;;3.38;73.14;92868.53;5035615;27;20406;-40
2021/12/20 12:10:03;;;;;;;8.20;6.13;;;;;;;3.44;72.64;92871.22;5025087;28;20052;-41
2021/12/20 12:12:29;;;;;;;4.40;3.85;;;;;;;3.14;72.67;92849.50;5032075;28;20041;-41
2021/12/20 12:15:08;;;;;;;4.00;3.60;;;;;;;3.22;73.04;92876.94;5034386;27;20034;-40
2021/12/20 12:18:10;;;;;;;4.95;3.60;;;;;;;3.27;73.13;92870.69;5040315;27;20421;-42